sensor_id;sensor_type;location;lat;lon;timestamp;pressure;altitude;pressure_sealevel;temperature;humidity
6020;BME280;3038;51.122;6.840;2023-03-11T00:01:11;100297.81;;;1.81;84.73
6020;BME280;3038;51.122;6.840;2023-03-11T00:03:37;100305.66;;;1.81;83.93
6020;BME280;3038;51.122;6.840;2023-03-11T00:06:02;100309.22;;;1.80;84.02
6020;BME280;3038;51.122;6.840;2023-03-11T00:08:28;100321.38;;;1.81;84.48
6020;BME280;3038;51.122;6.840;2023-03-11T00:10:55;100326.38;;;1.84;83.32
6020;BME280;3038;51.122;6.840;2023-03-11T00:13:21;100322.06;;;1.83;83.20
6020;BME280;3038;51.122;6.840;2023-03-11T00:15:48;100312.44;;;1.84;82.78
6020;BME280;3038;51.122;6.840;2023-03-11T00:18:15;100310.06;;;1.80;83.04
6020;BME280;3038;51.122;6.840;2023-03-11T00:20:43;100317.78;;;1.82;82.90
6020;BME280;3038;51.122;6.840;2023-03-11T00:23:12;100328.13;;;1.84;82.52
6020;BME280;3038;51.122;6.840;2023-03-11T00:25:38;100331.63;;;1.84;82.68
6020;BME280;3038;51.122;6.840;2023-03-11T00:28:05;100318.41;;;1.86;82.65
6020;BME280;3038;51.122;6.840;2023-03-11T00:30:32;100334.94;;;1.86;82.58
6020;BME280;3038;51.122;6.840;2023-03-11T00:32:58;100341.00;;;1.87;82.88
6020;BME280;3038;51.122;6.840;2023-03-11T00:35:26;100341.00;;;1.87;82.65
6020;BME280;3038;51.122;6.840;2023-03-11T00:37:54;100345.63;;;1.83;82.24
6020;BME280;3038;51.122;6.840;2023-03-11T00:40:21;100349.31;;;1.80;82.24
6020;BME280;3038;51.122;6.840;2023-03-11T00:42:47;100350.66;;;1.86;83.23
6020;BME280;3038;51.122;6.840;2023-03-11T00:45:14;100351.47;;;1.87;82.06
6020;BME280;3038;51.122;6.840;2023-03-11T00:47:40;100352.72;;;1.94;83.29
6020;BME280;3038;51.122;6.840;2023-03-11T00:50:07;100355.41;;;1.92;82.54
6020;BME280;3038;51.122;6.840;2023-03-11T00:52:33;100359.00;;;1.91;82.51
6020;BME280;3038;51.122;6.840;2023-03-11T00:54:59;100361.13;;;1.86;82.78
6020;BME280;3038;51.122;6.840;2023-03-11T00:57:25;100366.34;;;1.86;82.80
6020;BME280;3038;51.122;6.840;2023-03-11T00:59:53;100370.28;;;1.92;82.23
6020;BME280;3038;51.122;6.840;2023-03-11T01:02:19;100375.41;;;1.93;82.43
6020;BME280;3038;51.122;6.840;2023-03-11T01:04:44;100378.66;;;1.97;82.66
6020;BME280;3038;51.122;6.840;2023-03-11T01:07:10;100379.47;;;1.97;82.27
6020;BME280;3038;51.122;6.840;2023-03-11T01:09:35;100377.59;;;1.99;82.75
6020;BME280;3038;51.122;6.840;2023-03-11T01:12:00;100382.09;;;1.97;82.16
6020;BME280;3038;51.122;6.840;2023-03-11T01:14:26;100375.06;;;1.98;82.11
6020;BME280;3038;51.122;6.840;2023-03-11T01:16:51;100378.44;;;2.00;82.36
6020;BME280;3038;51.122;6.840;2023-03-11T01:19:18;100379.03;;;2.03;82.41
6020;BME280;3038;51.122;6.840;2023-03-11T01:21:43;100381.16;;;1.98;82.22
6020;BME280;3038;51.122;6.840;2023-03-11T01:24:08;100372.34;;;1.99;81.88
6020;BME280;3038;51.122;6.840;2023-03-11T01:26:34;100375.19;;;1.96;82.32
6020;BME280;3038;51.122;6.840;2023-03-11T01:28:59;100393.72;;;1.93;81.35
6020;BME280;3038;51.122;6.840;2023-03-11T01:31:24;100392.31;;;1.89;82.01
6020;BME280;3038;51.122;6.840;2023-03-11T01:33:50;100390.41;;;1.91;82.24
6020;BME280;3038;51.122;6.840;2023-03-11T01:36:15;100395.66;;;1.91;82.01
6020;BME280;3038;51.122;6.840;2023-03-11T01:38:40;100401.53;;;1.82;82.19
6020;BME280;3038;51.122;6.840;2023-03-11T01:41:06;100400.59;;;1.83;82.12
6020;BME280;3038;51.122;6.840;2023-03-11T01:48:27;100406.66;;;1.84;82.92
6020;BME280;3038;51.122;6.840;2023-03-11T01:50:53;100413.81;;;1.82;82.52
6020;BME280;3038;51.122;6.840;2023-03-11T01:53:18;100413.69;;;1.83;82.86
6020;BME280;3038;51.122;6.840;2023-03-11T01:55:44;100416.09;;;1.86;83.06
6020;BME280;3038;51.122;6.840;2023-03-11T01:58:14;100409.06;;;1.87;82.79
6020;BME280;3038;51.122;6.840;2023-03-11T02:00:41;100413.47;;;1.86;82.51
6020;BME280;3038;51.122;6.840;2023-03-11T02:03:29;100412.00;;;1.82;82.49
6020;BME280;3038;51.122;6.840;2023-03-11T02:05:56;100424.38;;;1.80;83.00
6020;BME280;3038;51.122;6.840;2023-03-11T02:08:24;100418.53;;;1.76;82.40
6020;BME280;3038;51.122;6.840;2023-03-11T02:10:51;100417.50;;;1.79;82.55
6020;BME280;3038;51.122;6.840;2023-03-11T02:13:17;100417.25;;;1.82;83.14
6020;BME280;3038;51.122;6.840;2023-03-11T02:15:43;100413.69;;;1.83;82.80
6020;BME280;3038;51.122;6.840;2023-03-11T02:18:11;100415.59;;;1.81;82.65
6020;BME280;3038;51.122;6.840;2023-03-11T02:23:41;100421.09;;;1.65;81.62
6020;BME280;3038;51.122;6.840;2023-03-11T02:26:20;100419.03;;;1.58;80.76
6020;BME280;3038;51.122;6.840;2023-03-11T02:28:47;100421.84;;;1.54;81.66
6020;BME280;3038;51.122;6.840;2023-03-11T02:31:14;100411.09;;;1.46;81.26
6020;BME280;3038;51.122;6.840;2023-03-11T02:33:40;100413.41;;;1.38;80.85
6020;BME280;3038;51.122;6.840;2023-03-11T02:36:38;100417.44;;;1.31;81.30
6020;BME280;3038;51.122;6.840;2023-03-11T02:39:05;100410.94;;;1.24;81.36
6020;BME280;3038;51.122;6.840;2023-03-11T02:41:33;100421.22;;;1.14;80.86
6020;BME280;3038;51.122;6.840;2023-03-11T02:44:00;100418.28;;;1.06;80.63
6020;BME280;3038;51.122;6.840;2023-03-11T02:46:26;100424.56;;;1.03;80.58
6020;BME280;3038;51.122;6.840;2023-03-11T02:48:52;100426.44;;;1.01;81.03
6020;BME280;3038;51.122;6.840;2023-03-11T02:51:18;100425.84;;;0.98;80.83
6020;BME280;3038;51.122;6.840;2023-03-11T02:53:48;100432.34;;;0.92;80.54
6020;BME280;3038;51.122;6.840;2023-03-11T02:56:15;100432.53;;;0.89;80.67
6020;BME280;3038;51.122;6.840;2023-03-11T02:58:40;100428.56;;;0.84;80.84
6020;BME280;3038;51.122;6.840;2023-03-11T03:01:05;100438.19;;;0.83;80.01
6020;BME280;3038;51.122;6.840;2023-03-11T03:03:31;100432.13;;;0.83;79.83
6020;BME280;3038;51.122;6.840;2023-03-11T03:05:56;100436.47;;;0.82;80.20
6020;BME280;3038;51.122;6.840;2023-03-11T03:08:21;100432.44;;;0.78;80.10
6020;BME280;3038;51.122;6.840;2023-03-11T03:10:47;100435.88;;;0.79;80.31
6020;BME280;3038;51.122;6.840;2023-03-11T03:13:12;100434.53;;;0.73;80.15
6020;BME280;3038;51.122;6.840;2023-03-11T03:15:38;100437.13;;;0.73;79.58
6020;BME280;3038;51.122;6.840;2023-03-11T03:18:03;100438.06;;;0.72;79.87
6020;BME280;3038;51.122;6.840;2023-03-11T03:20:29;100439.00;;;0.71;79.65
6020;BME280;3038;51.122;6.840;2023-03-11T03:22:54;100440.13;;;0.67;79.50
6020;BME280;3038;51.122;6.840;2023-03-11T03:25:20;100446.31;;;0.66;79.92
6020;BME280;3038;51.122;6.840;2023-03-11T03:27:46;100442.44;;;0.59;79.40
6020;BME280;3038;51.122;6.840;2023-03-11T03:30:11;100452.16;;;0.57;79.90
6020;BME280;3038;51.122;6.840;2023-03-11T03:32:37;100454.75;;;0.57;80.24
6020;BME280;3038;51.122;6.840;2023-03-11T03:35:03;100457.59;;;0.54;80.21
6020;BME280;3038;51.122;6.840;2023-03-11T03:37:32;100455.19;;;0.50;79.97
6020;BME280;3038;51.122;6.840;2023-03-11T03:39:58;100454.66;;;0.45;80.17
6020;BME280;3038;51.122;6.840;2023-03-11T03:42:23;100461.00;;;0.41;80.46
6020;BME280;3038;51.122;6.840;2023-03-11T03:44:50;100464.56;;;0.40;80.01
6020;BME280;3038;51.122;6.840;2023-03-11T03:47:16;100467.28;;;0.39;80.37
6020;BME280;3038;51.122;6.840;2023-03-11T03:49:42;100473.63;;;0.35;80.68
6020;BME280;3038;51.122;6.840;2023-03-11T03:52:07;100472.06;;;0.32;80.89
6020;BME280;3038;51.122;6.840;2023-03-11T03:54:33;100478.41;;;0.28;80.42
6020;BME280;3038;51.122;6.840;2023-03-11T03:56:58;100472.56;;;0.24;80.22
6020;BME280;3038;51.122;6.840;2023-03-11T03:59:24;100478.81;;;0.22;80.57
6020;BME280;3038;51.122;6.840;2023-03-11T04:01:49;100486.09;;;0.17;80.86
6020;BME280;3038;51.122;6.840;2023-03-11T04:04:14;100488.72;;;0.17;80.71
6020;BME280;3038;51.122;6.840;2023-03-11T04:06:41;100495.06;;;0.13;80.92
6020;BME280;3038;51.122;6.840;2023-03-11T04:09:06;100499.03;;;0.06;81.08
6020;BME280;3038;51.122;6.840;2023-03-11T04:11:32;100488.78;;;0.03;81.36
6020;BME280;3038;51.122;6.840;2023-03-11T04:13:57;100496.72;;;0.01;81.24
6020;BME280;3038;51.122;6.840;2023-03-11T04:16:23;100504.59;;;-0.01;81.13
6020;BME280;3038;51.122;6.840;2023-03-11T04:18:48;100516.00;;;-0.02;81.04
6020;BME280;3038;51.122;6.840;2023-03-11T04:21:14;100516.00;;;-0.02;81.09
6020;BME280;3038;51.122;6.840;2023-03-11T04:23:40;100515.06;;;-0.01;81.36
6020;BME280;3038;51.122;6.840;2023-03-11T04:26:05;100514.44;;;-0.04;81.33
6020;BME280;3038;51.122;6.840;2023-03-11T04:28:31;100509.22;;;-0.04;80.96
6020;BME280;3038;51.122;6.840;2023-03-11T04:30:56;100519.66;;;-0.04;81.09
6020;BME280;3038;51.122;6.840;2023-03-11T04:33:22;100523.94;;;-0.03;81.42
6020;BME280;3038;51.122;6.840;2023-03-11T04:35:47;100524.03;;;-0.05;81.54
6020;BME280;3038;51.122;6.840;2023-03-11T04:38:12;100529.44;;;-0.08;81.09
6020;BME280;3038;51.122;6.840;2023-03-11T04:40:38;100525.69;;;-0.04;81.42
6020;BME280;3038;51.122;6.840;2023-03-11T04:43:04;100534.47;;;-0.05;81.25
6020;BME280;3038;51.122;6.840;2023-03-11T04:45:30;100533.13;;;0.03;80.99
6020;BME280;3038;51.122;6.840;2023-03-11T04:47:55;100535.75;;;0.03;81.01
6020;BME280;3038;51.122;6.840;2023-03-11T04:50:21;100543.69;;;0.01;80.82
6020;BME280;3038;51.122;6.840;2023-03-11T04:52:46;100543.69;;;0.01;80.72
6020;BME280;3038;51.122;6.840;2023-03-11T04:55:12;100547.03;;;0.03;80.86
6020;BME280;3038;51.122;6.840;2023-03-11T04:57:39;100544.13;;;0.08;79.70
6020;BME280;3038;51.122;6.840;2023-03-11T05:00:05;100548.22;;;0.12;80.23
6020;BME280;3038;51.122;6.840;2023-03-11T05:02:35;100557.72;;;0.13;80.00
6020;BME280;3038;51.122;6.840;2023-03-11T05:05:01;100555.88;;;0.15;79.57
6020;BME280;3038;51.122;6.840;2023-03-11T05:07:26;100553.69;;;0.21;79.63
6020;BME280;3038;51.122;6.840;2023-03-11T05:09:51;100554.53;;;0.22;79.13
6020;BME280;3038;51.122;6.840;2023-03-11T05:12:17;100557.13;;;0.22;79.36
6020;BME280;3038;51.122;6.840;2023-03-11T05:14:42;100556.31;;;0.21;78.87
6020;BME280;3038;51.122;6.840;2023-03-11T05:17:07;100557.25;;;0.20;79.31
6020;BME280;3038;51.122;6.840;2023-03-11T05:19:34;100555.66;;;0.18;79.11
6020;BME280;3038;51.122;6.840;2023-03-11T05:22:01;100560.97;;;0.16;78.91
6020;BME280;3038;51.122;6.840;2023-03-11T05:24:28;100562.66;;;0.17;79.46
6020;BME280;3038;51.122;6.840;2023-03-11T05:26:53;100562.53;;;0.19;79.45
6020;BME280;3038;51.122;6.840;2023-03-11T05:29:19;100570.38;;;0.19;79.83
6020;BME280;3038;51.122;6.840;2023-03-11T05:31:45;100562.53;;;0.19;79.67
6020;BME280;3038;51.122;6.840;2023-03-11T05:34:11;100568.03;;;0.14;79.58
6020;BME280;3038;51.122;6.840;2023-03-11T05:36:37;100566.09;;;0.18;79.39
6020;BME280;3038;51.122;6.840;2023-03-11T05:39:02;100569.53;;;0.18;80.10
6020;BME280;3038;51.122;6.840;2023-03-11T05:41:27;100576.63;;;0.16;79.47
6020;BME280;3038;51.122;6.840;2023-03-11T05:43:53;100571.59;;;0.13;79.75
6020;BME280;3038;51.122;6.840;2023-03-11T05:46:18;100581.09;;;0.14;79.85
6020;BME280;3038;51.122;6.840;2023-03-11T05:48:45;100584.38;;;0.18;80.11
6020;BME280;3038;51.122;6.840;2023-03-11T05:51:11;100582.84;;;0.28;79.57
6020;BME280;3038;51.122;6.840;2023-03-11T05:53:36;100587.69;;;0.34;79.40
6020;BME280;3038;51.122;6.840;2023-03-11T05:56:03;100587.09;;;0.43;79.61
6020;BME280;3038;51.122;6.840;2023-03-11T05:58:29;100585.22;;;0.45;79.16
6020;BME280;3038;51.122;6.840;2023-03-11T06:00:55;100579.72;;;0.50;79.11
6020;BME280;3038;51.122;6.840;2023-03-11T06:03:20;100579.59;;;0.51;78.72
6020;BME280;3038;51.122;6.840;2023-03-11T06:05:47;100582.75;;;0.57;79.02
6020;BME280;3038;51.122;6.840;2023-03-11T06:08:13;100591.13;;;0.62;78.27
6020;BME280;3038;51.122;6.840;2023-03-11T06:10:40;100591.78;;;0.65;78.70
6020;BME280;3038;51.122;6.840;2023-03-11T06:13:05;100595.75;;;0.71;78.64
6020;BME280;3038;51.122;6.840;2023-03-11T06:15:35;100597.97;;;0.77;78.98
6020;BME280;3038;51.122;6.840;2023-03-11T06:18:01;100608.97;;;0.82;78.82
6020;BME280;3038;51.122;6.840;2023-03-11T06:20:27;100609.06;;;0.81;78.20
6020;BME280;3038;51.122;6.840;2023-03-11T06:22:52;100616.06;;;0.80;77.81
6020;BME280;3038;51.122;6.840;2023-03-11T06:25:18;100616.78;;;0.82;77.46
6020;BME280;3038;51.122;6.840;2023-03-11T06:27:47;100610.66;;;0.83;77.40
6020;BME280;3038;51.122;6.840;2023-03-11T06:30:15;100620.88;;;0.86;77.46
6020;BME280;3038;51.122;6.840;2023-03-11T06:32:42;100626.66;;;0.91;78.05
6020;BME280;3038;51.122;6.840;2023-03-11T06:35:08;100627.00;;;0.99;77.29
6020;BME280;3038;51.122;6.840;2023-03-11T06:37:37;100632.94;;;1.01;76.79
6020;BME280;3038;51.122;6.840;2023-03-11T06:40:04;100634.31;;;0.94;77.23
6020;BME280;3038;51.122;6.840;2023-03-11T06:42:30;100632.63;;;0.93;78.01
6020;BME280;3038;51.122;6.840;2023-03-11T06:44:55;100636.56;;;0.86;78.04
6020;BME280;3038;51.122;6.840;2023-03-11T06:47:21;100635.31;;;0.79;78.11
6020;BME280;3038;51.122;6.840;2023-03-11T06:49:46;100639.59;;;0.80;78.46
6020;BME280;3038;51.122;6.840;2023-03-11T06:52:11;100634.84;;;0.72;78.56
6020;BME280;3038;51.122;6.840;2023-03-11T06:54:36;100642.59;;;0.74;78.57
6020;BME280;3038;51.122;6.840;2023-03-11T06:57:02;100647.91;;;0.72;78.25
6020;BME280;3038;51.122;6.840;2023-03-11T06:59:27;100651.16;;;0.76;78.60
6020;BME280;3038;51.122;6.840;2023-03-11T07:01:53;100662.81;;;0.85;78.29
6020;BME280;3038;51.122;6.840;2023-03-11T07:04:19;100669.22;;;0.93;78.04
6020;BME280;3038;51.122;6.840;2023-03-11T07:10:07;100692.72;;;1.20;77.68
6020;BME280;3038;51.122;6.840;2023-03-11T07:12:32;100698.19;;;1.30;77.27
6020;BME280;3038;51.122;6.840;2023-03-11T07:14:58;100705.13;;;1.31;76.35
6020;BME280;3038;51.122;6.840;2023-03-11T07:17:24;100701.34;;;1.35;76.38
6020;BME280;3038;51.122;6.840;2023-03-11T07:19:50;100698.03;;;1.46;77.16
6020;BME280;3038;51.122;6.840;2023-03-11T07:22:16;100709.53;;;1.43;76.50
6020;BME280;3038;51.122;6.840;2023-03-11T07:24:44;100711.31;;;1.43;76.54
6020;BME280;3038;51.122;6.840;2023-03-11T07:27:10;100715.28;;;1.36;76.45
6020;BME280;3038;51.122;6.840;2023-03-11T07:29:36;100715.34;;;1.34;77.05
6020;BME280;3038;51.122;6.840;2023-03-11T07:32:01;100722.78;;;1.27;76.79
6020;BME280;3038;51.122;6.840;2023-03-11T07:34:26;100730.28;;;1.19;76.44
6020;BME280;3038;51.122;6.840;2023-03-11T07:36:52;100733.41;;;1.12;77.69
6020;BME280;3038;51.122;6.840;2023-03-11T07:39:17;100738.72;;;1.10;77.12
6020;BME280;3038;51.122;6.840;2023-03-11T07:41:43;100738.81;;;1.09;77.04
6020;BME280;3038;51.122;6.840;2023-03-11T07:44:11;100737.75;;;1.11;77.12
6020;BME280;3038;51.122;6.840;2023-03-11T07:46:37;100740.84;;;1.18;77.65
6020;BME280;3038;51.122;6.840;2023-03-11T07:49:03;100739.41;;;1.26;77.54
6020;BME280;3038;51.122;6.840;2023-03-11T07:51:31;100753.88;;;1.32;77.32
6020;BME280;3038;51.122;6.840;2023-03-11T07:53:57;100751.97;;;1.34;77.34
6020;BME280;3038;51.122;6.840;2023-03-11T07:56:24;100757.66;;;1.41;77.24
6020;BME280;3038;51.122;6.840;2023-03-11T07:58:51;100757.47;;;1.57;78.30
6020;BME280;3038;51.122;6.840;2023-03-11T08:01:21;100767.75;;;1.60;75.54
6020;BME280;3038;51.122;6.840;2023-03-11T08:03:50;100766.06;;;1.59;76.92
6020;BME280;3038;51.122;6.840;2023-03-11T08:06:19;100766.22;;;1.70;76.36
6020;BME280;3038;51.122;6.840;2023-03-11T08:08:45;100766.31;;;1.81;76.62
6020;BME280;3038;51.122;6.840;2023-03-11T08:11:11;100760.13;;;1.82;76.08
6020;BME280;3038;51.122;6.840;2023-03-11T08:13:38;100762.56;;;1.85;75.20
6020;BME280;3038;51.122;6.840;2023-03-11T08:16:04;100774.41;;;1.91;74.55
6020;BME280;3038;51.122;6.840;2023-03-11T08:18:30;100773.66;;;2.01;74.65
6020;BME280;3038;51.122;6.840;2023-03-11T08:20:56;100768.44;;;2.14;73.91
6020;BME280;3038;51.122;6.840;2023-03-11T08:23:21;100772.75;;;2.28;73.65
6020;BME280;3038;51.122;6.840;2023-03-11T08:25:47;100776.81;;;2.32;73.76
6020;BME280;3038;51.122;6.840;2023-03-11T08:28:12;100779.75;;;2.40;73.94
6020;BME280;3038;51.122;6.840;2023-03-11T08:30:37;100779.31;;;2.46;73.74
6020;BME280;3038;51.122;6.840;2023-03-11T08:33:04;100780.78;;;2.50;74.73
6020;BME280;3038;51.122;6.840;2023-03-11T08:35:30;100778.28;;;2.49;73.65
6020;BME280;3038;51.122;6.840;2023-03-11T08:37:55;100784.56;;;2.59;72.84
6020;BME280;3038;51.122;6.840;2023-03-11T08:40:21;100779.09;;;2.62;72.59
6020;BME280;3038;51.122;6.840;2023-03-11T08:42:47;100781.50;;;2.65;72.75
6020;BME280;3038;51.122;6.840;2023-03-11T08:45:12;100778.34;;;2.73;72.55
6020;BME280;3038;51.122;6.840;2023-03-11T08:47:38;100778.88;;;2.78;71.69
6020;BME280;3038;51.122;6.840;2023-03-11T08:50:10;100779.69;;;2.91;71.69
6020;BME280;3038;51.122;6.840;2023-03-11T08:52:36;100779.34;;;2.96;72.07
6020;BME280;3038;51.122;6.840;2023-03-11T08:55:01;100784.66;;;3.07;71.76
6020;BME280;3038;51.122;6.840;2023-03-11T08:57:29;100785.34;;;3.22;71.31
6020;BME280;3038;51.122;6.840;2023-03-11T08:59:54;100790.75;;;3.31;70.05
6020;BME280;3038;51.122;6.840;2023-03-11T09:02:25;100791.53;;;3.45;66.22
6020;BME280;3038;51.122;6.840;2023-03-11T09:04:50;100791.47;;;3.57;68.93
6020;BME280;3038;51.122;6.840;2023-03-11T09:07:16;100792.22;;;3.59;67.08
6020;BME280;3038;51.122;6.840;2023-03-11T09:09:41;100792.31;;;3.58;66.02
6020;BME280;3038;51.122;6.840;2023-03-11T09:12:07;100799.78;;;3.51;64.12
6020;BME280;3038;51.122;6.840;2023-03-11T09:14:33;100798.50;;;3.57;64.92
6020;BME280;3038;51.122;6.840;2023-03-11T09:16:59;100797.53;;;3.82;64.38
6020;BME280;3038;51.122;6.840;2023-03-11T09:19:25;100794.59;;;3.98;63.72
6020;BME280;3038;51.122;6.840;2023-03-11T09:21:50;100792.94;;;4.08;61.57
6020;BME280;3038;51.122;6.840;2023-03-11T09:24:15;100789.75;;;4.27;61.98
6020;BME280;3038;51.122;6.840;2023-03-11T09:26:41;100785.72;;;4.45;60.77
6020;BME280;3038;51.122;6.840;2023-03-11T09:29:06;100783.78;;;4.58;62.06
6020;BME280;3038;51.122;6.840;2023-03-11T09:31:31;100781.63;;;4.63;61.32
6020;BME280;3038;51.122;6.840;2023-03-11T09:33:57;100785.00;;;4.66;60.65
6020;BME280;3038;51.122;6.840;2023-03-11T09:36:22;100787.97;;;4.72;58.71
6020;BME280;3038;51.122;6.840;2023-03-11T09:38:47;100782.34;;;4.88;56.05
6020;BME280;3038;51.122;6.840;2023-03-11T09:41:28;100783.41;;;5.08;52.56
6020;BME280;3038;51.122;6.840;2023-03-11T09:47:30;100795.13;;;5.47;50.59
6020;BME280;3038;51.122;6.840;2023-03-11T09:49:51;100794.63;;;5.85;51.42
6020;BME280;3038;51.122;6.840;2023-03-11T09:52:37;100801.06;;;6.13;55.17
6020;BME280;3038;51.122;6.840;2023-03-11T09:55:20;100794.97;;;6.64;51.81
6020;BME280;3038;51.122;6.840;2023-03-11T09:57:46;100797.19;;;7.09;52.06
6020;BME280;3038;51.122;6.840;2023-03-11T10:00:16;100799.19;;;7.27;49.74
6020;BME280;3038;51.122;6.840;2023-03-11T10:02:43;100796.91;;;7.12;52.58
6020;BME280;3038;51.122;6.840;2023-03-11T10:05:15;100808.75;;;7.28;50.37
6020;BME280;3038;51.122;6.840;2023-03-11T10:07:47;100815.91;;;6.97;50.91
6020;BME280;3038;51.122;6.840;2023-03-11T10:10:16;100817.38;;;7.30;50.98
6020;BME280;3038;51.122;6.840;2023-03-11T10:13:02;100821.34;;;6.64;51.78
6020;BME280;3038;51.122;6.840;2023-03-11T10:15:49;100825.28;;;6.49;49.58
6020;BME280;3038;51.122;6.840;2023-03-11T10:18:32;100825.34;;;6.59;50.81
6020;BME280;3038;51.122;6.840;2023-03-11T10:21:18;100826.66;;;6.74;52.68
6020;BME280;3038;51.122;6.840;2023-03-11T10:27:13;100835.63;;;6.92;49.32
6020;BME280;3038;51.122;6.840;2023-03-11T10:29:56;100838.41;;;9.12;43.08
6020;BME280;3038;51.122;6.840;2023-03-11T10:32:34;100845.88;;;8.89;45.38
6020;BME280;3038;51.122;6.840;2023-03-11T10:35:23;100841.91;;;8.09;45.98
6020;BME280;3038;51.122;6.840;2023-03-11T10:37:53;100848.28;;;8.83;43.94
6020;BME280;3038;51.122;6.840;2023-03-11T10:40:27;100833.19;;;10.71;41.82
6020;BME280;3038;51.122;6.840;2023-03-11T10:42:55;100847.19;;;11.99;40.70
6020;BME280;3038;51.122;6.840;2023-03-11T10:45:22;100846.44;;;11.48;40.08
6020;BME280;3038;51.122;6.840;2023-03-11T10:47:48;100845.06;;;11.94;41.32
6020;BME280;3038;51.122;6.840;2023-03-11T10:50:18;100836.84;;;11.71;39.46
6020;BME280;3038;51.122;6.840;2023-03-11T10:53:06;100840.16;;;11.73;36.58
6020;BME280;3038;51.122;6.840;2023-03-11T10:55:32;100833.53;;;12.34;38.99
6020;BME280;3038;51.122;6.840;2023-03-11T10:58:13;100822.84;;;13.06;33.54
6020;BME280;3038;51.122;6.840;2023-03-11T11:00:39;100817.94;;;13.26;37.53
6020;BME280;3038;51.122;6.840;2023-03-11T11:03:20;100824.19;;;13.02;33.70
6020;BME280;3038;51.122;6.840;2023-03-11T11:05:56;100830.22;;;12.32;34.84
6020;BME280;3038;51.122;6.840;2023-03-11T11:08:22;100829.28;;;10.92;38.57
6020;BME280;3038;51.122;6.840;2023-03-11T11:10:59;100829.81;;;10.61;39.08
6020;BME280;3038;51.122;6.840;2023-03-11T11:13:32;100818.47;;;10.07;41.31
6020;BME280;3038;51.122;6.840;2023-03-11T11:18:43;100829.53;;;9.04;41.62
6020;BME280;3038;51.122;6.840;2023-03-11T11:21:15;100830.63;;;8.73;41.67
6020;BME280;3038;51.122;6.840;2023-03-11T11:23:45;100827.84;;;8.09;44.50
6020;BME280;3038;51.122;6.840;2023-03-11T11:26:16;100827.88;;;7.89;47.07
6020;BME280;3038;51.122;6.840;2023-03-11T11:28:43;100830.78;;;7.77;47.12
6020;BME280;3038;51.122;6.840;2023-03-11T11:31:23;100839.84;;;7.84;44.50
6020;BME280;3038;51.122;6.840;2023-03-11T11:33:54;100849.28;;;7.77;47.93
6020;BME280;3038;51.122;6.840;2023-03-11T11:36:21;100844.81;;;7.58;45.02
6020;BME280;3038;51.122;6.840;2023-03-11T11:38:53;100849.00;;;7.70;45.09
6020;BME280;3038;51.122;6.840;2023-03-11T11:41:21;100849.25;;;7.57;47.04
6020;BME280;3038;51.122;6.840;2023-03-11T11:43:59;100848.84;;;7.52;46.10
6020;BME280;3038;51.122;6.840;2023-03-11T11:46:40;100848.59;;;8.04;43.54
6020;BME280;3038;51.122;6.840;2023-03-11T11:54:51;100834.19;;;10.44;37.64
6020;BME280;3038;51.122;6.840;2023-03-11T11:57:21;100829.03;;;10.43;40.58
6020;BME280;3038;51.122;6.840;2023-03-11T11:59:48;100820.53;;;11.74;37.20
6020;BME280;3038;51.122;6.840;2023-03-11T12:08:38;100834.94;;;10.89;37.86
6020;BME280;3038;51.122;6.840;2023-03-11T12:11:11;100839.00;;;10.49;38.63
6020;BME280;3038;51.122;6.840;2023-03-11T12:19:12;100838.31;;;10.03;39.63
6020;BME280;3038;51.122;6.840;2023-03-11T12:27:31;100844.53;;;10.29;37.96
6020;BME280;3038;51.122;6.840;2023-03-11T12:30:02;100845.16;;;10.75;37.24
6020;BME280;3038;51.122;6.840;2023-03-11T12:32:39;100847.81;;;10.75;35.09
6020;BME280;3038;51.122;6.840;2023-03-11T12:35:19;100846.28;;;10.03;37.12
6020;BME280;3038;51.122;6.840;2023-03-11T12:37:46;100846.38;;;9.75;39.31
6020;BME280;3038;51.122;6.840;2023-03-11T12:45:58;100837.75;;;9.28;40.40
6020;BME280;3038;51.122;6.840;2023-03-11T12:50:49;100833.88;;;9.68;41.06
6020;BME280;3038;51.122;6.840;2023-03-11T12:53:16;100836.22;;;9.53;40.76
6020;BME280;3038;51.122;6.840;2023-03-11T12:55:57;100834.69;;;11.08;38.29
6020;BME280;3038;51.122;6.840;2023-03-11T12:58:46;100839.88;;;12.25;35.23
6020;BME280;3038;51.122;6.840;2023-03-11T13:01:32;100833.25;;;13.63;33.10
6020;BME280;3038;51.122;6.840;2023-03-11T13:04:17;100824.63;;;13.76;32.47
6020;BME280;3038;51.122;6.840;2023-03-11T13:09:23;100815.47;;;12.77;34.76
6020;BME280;3038;51.122;6.840;2023-03-11T13:11:48;100832.63;;;12.67;34.06
6020;BME280;3038;51.122;6.840;2023-03-11T13:14:32;100823.72;;;12.91;31.38
6020;BME280;3038;51.122;6.840;2023-03-11T13:17:23;100815.28;;;12.87;31.92
6020;BME280;3038;51.122;6.840;2023-03-11T13:19:54;100804.59;;;13.34;32.89
6020;BME280;3038;51.122;6.840;2023-03-11T13:22:42;100817.03;;;14.63;30.43
6020;BME280;3038;51.122;6.840;2023-03-11T13:25:41;100822.88;;;14.44;29.21
6020;BME280;3038;51.122;6.840;2023-03-11T13:39:34;100826.47;;;16.54;28.22
6020;BME280;3038;51.122;6.840;2023-03-11T13:42:02;100821.38;;;16.37;27.67
6020;BME280;3038;51.122;6.840;2023-03-11T13:44:36;100817.78;;;16.52;26.52
6020;BME280;3038;51.122;6.840;2023-03-11T13:47:13;100812.34;;;17.14;25.19
6020;BME280;3038;51.122;6.840;2023-03-11T13:49:59;100811.81;;;17.39;25.22
6020;BME280;3038;51.122;6.840;2023-03-11T13:52:32;100826.16;;;15.71;26.74
6020;BME280;3038;51.122;6.840;2023-03-11T13:55:22;100818.94;;;15.14;27.58
6020;BME280;3038;51.122;6.840;2023-03-11T13:57:51;100819.25;;;14.22;30.56
6020;BME280;3038;51.122;6.840;2023-03-11T14:00:20;100819.03;;;13.63;30.12
6020;BME280;3038;51.122;6.840;2023-03-11T14:03:02;100817.28;;;13.55;29.11
6020;BME280;3038;51.122;6.840;2023-03-11T14:05:34;100818.63;;;13.20;30.64
6020;BME280;3038;51.122;6.840;2023-03-11T14:08:32;100824.19;;;12.55;32.71
6020;BME280;3038;51.122;6.840;2023-03-11T14:13:40;100835.84;;;12.46;32.93
6020;BME280;3038;51.122;6.840;2023-03-11T14:18:46;100824.44;;;12.84;32.17
6020;BME280;3038;51.122;6.840;2023-03-11T14:21:15;100831.97;;;13.20;31.57
6020;BME280;3038;51.122;6.840;2023-03-11T14:23:44;100828.66;;;13.72;30.88
6020;BME280;3038;51.122;6.840;2023-03-11T14:26:21;100823.38;;;14.48;29.08
6020;BME280;3038;51.122;6.840;2023-03-11T14:28:53;100829.28;;;14.58;29.80
6020;BME280;3038;51.122;6.840;2023-03-11T14:31:39;100836.00;;;14.69;29.04
6020;BME280;3038;51.122;6.840;2023-03-11T14:39:28;100838.22;;;15.09;28.90
6020;BME280;3038;51.122;6.840;2023-03-11T14:42:07;100836.38;;;14.13;28.92
6020;BME280;3038;51.122;6.840;2023-03-11T14:44:40;100845.75;;;12.84;31.31